Time;durP1;ratioP1;P1;durP2;ratioP2;P2;SDS_P1;SDS_P2;PMS_P1;PMS_P2;Temp;Humidity;BMP_temperature;BMP_pressure;BME280_temperature;BME280_humidity;BME280_pressure;Samples;Min_cycle;Max_cycle;Signal;HPM_P1;HPM_P2
2022/08/03 00:01:39;;;;;;;22.88;10.32;;;;;;;;;;3328647;42;20159;-59
2022/08/03 00:04:06;;;;;;;23.08;10.32;;;;;;;;;;3324601;42;20104;-59
2022/08/03 00:06:33;;;;;;;22.05;10.75;;;;;;;;;;3337569;42;20115;-58
2022/08/03 00:08:59;;;;;;;25.25;10.70;;;;;;;;;;3325126;42;20085;-59
2022/08/03 00:11:25;;;;;;;25.30;10.93;;;;;;;;;;3329907;42;20093;-63
2022/08/03 00:13:52;;;;;;;23.67;10.70;;;;;;;;;;3325146;42;20373;-59
2022/08/03 00:16:18;;;;;;;23.80;11.27;;;;;;;;;;3328549;42;20101;-59
2022/08/03 00:18:44;;;;;;;22.17;10.55;;;;;;;;;;3333805;42;20099;-59
2022/08/03 00:21:10;;;;;;;21.77;11.25;;;;;;;;;;3333796;42;20571;-59
2022/08/03 00:23:37;;;;;;;24.07;12.43;;;;;;;;;;3327050;42;20089;-60
2022/08/03 00:26:03;;;;;;;23.42;11.13;;;;;;;;;;3320655;42;20096;-60
2022/08/03 00:28:29;;;;;;;22.98;11.20;;;;;;;;;;3331468;42;20088;-59
2022/08/03 00:30:55;;;;;;;24.85;11.38;;;;;;;;;;3332177;42;20586;-59
2022/08/03 00:33:21;;;;;;;26.92;11.30;;;;;;;;;;3336109;42;20089;-59
2022/08/03 00:35:48;;;;;;;24.97;11.77;;;;;;;;;;3331798;42;20100;-59
2022/08/03 00:38:14;;;;;;;24.80;10.93;;;;;;;;;;3339097;42;20503;-58
2022/08/03 00:40:40;;;;;;;24.02;11.95;;;;;;;;;;3344296;42;20081;-58
2022/08/03 00:43:06;;;;;;;26.20;11.57;;;;;;;;;;3333015;42;20099;-58
2022/08/03 00:45:37;;;;;;;25.05;11.68;;;;;;;;;;3320730;42;20148;-58
2022/08/03 00:48:05;;;;;;;23.53;11.57;;;;;;;;;;3331678;42;20085;-59
2022/08/03 00:50:33;;;;;;;23.85;11.25;;;;;;;;;;3343737;42;20096;-59
2022/08/03 00:53:00;;;;;;;25.23;12.02;;;;;;;;;;3340402;42;20139;-58
2022/08/03 00:55:26;;;;;;;27.02;11.93;;;;;;;;;;3336231;42;20798;-60
2022/08/03 00:57:53;;;;;;;26.75;12.25;;;;;;;;;;3330934;42;20103;-60
2022/08/03 01:00:20;;;;;;;24.83;11.07;;;;;;;;;;3336777;42;20132;-57
2022/08/03 01:02:46;;;;;;;22.17;10.57;;;;;;;;;;3331719;42;20136;-59
2022/08/03 01:05:12;;;;;;;23.73;11.10;;;;;;;;;;3328866;42;20097;-57
2022/08/03 01:07:54;;;;;;;26.55;11.60;;;;;;;;;;3326325;42;20208;-58
2022/08/03 01:11:02;;;;;;;23.77;11.10;;;;;;;;;;3329002;42;20177;-59
2022/08/03 01:13:55;;;;;;;22.70;10.47;;;;;;;;;;3326365;42;20088;-59
2022/08/03 01:16:31;;;;;;;26.75;11.25;;;;;;;;;;3324367;42;20096;-60
2022/08/03 01:19:12;;;;;;;24.42;10.57;;;;;;;;;;3331843;42;20161;-58
2022/08/03 01:21:38;;;;;;;23.73;11.73;;;;;;;;;;3333726;42;20096;-59
2022/08/03 01:24:13;;;;;;;22.38;10.48;;;;;;;;;;3329330;42;20723;-60
2022/08/03 01:26:48;;;;;;;25.67;11.90;;;;;;;;;;3325729;42;20089;-59
2022/08/03 01:29:36;;;;;;;23.70;11.95;;;;;;;;;;3326287;42;20132;-58
2022/08/03 01:32:12;;;;;;;25.75;11.20;;;;;;;;;;3339797;42;20148;-59
2022/08/03 01:34:46;;;;;;;25.02;11.80;;;;;;;;;;3313635;42;20089;-60
2022/08/03 01:37:15;;;;;;;24.13;12.63;;;;;;;;;;3325629;42;20089;-59
2022/08/03 01:39:41;;;;;;;30.40;11.10;;;;;;;;;;3319882;42;20105;-59
2022/08/03 01:42:07;;;;;;;23.70;10.70;;;;;;;;;;3309933;42;20100;-60
2022/08/03 01:44:36;;;;;;;28.80;12.48;;;;;;;;;;3335634;42;20218;-57
2022/08/03 01:47:02;;;;;;;26.13;12.57;;;;;;;;;;3329795;42;20097;-56
2022/08/03 01:49:34;;;;;;;25.67;13.93;;;;;;;;;;3332619;42;20088;-58
2022/08/03 01:52:00;;;;;;;24.17;13.27;;;;;;;;;;3313669;42;20655;-58
2022/08/03 01:54:26;;;;;;;29.27;13.73;;;;;;;;;;3330586;42;20115;-56
2022/08/03 01:56:53;;;;;;;32.20;13.93;;;;;;;;;;3325281;42;20562;-58
2022/08/03 01:59:19;;;;;;;25.55;13.93;;;;;;;;;;3326597;42;20089;-58
2022/08/03 02:01:46;;;;;;;26.90;13.85;;;;;;;;;;3321194;42;20101;-57
2022/08/03 02:04:16;;;;;;;28.17;14.10;;;;;;;;;;3312568;42;20111;-58
2022/08/03 02:06:42;;;;;;;34.15;14.82;;;;;;;;;;3333554;42;20088;-59
2022/08/03 02:09:08;;;;;;;34.55;16.05;;;;;;;;;;3317396;42;20111;-58
2022/08/03 02:11:34;;;;;;;34.20;15.85;;;;;;;;;;3324374;42;20092;-58
2022/08/03 02:14:02;;;;;;;32.72;14.65;;;;;;;;;;3331453;42;20182;-58
2022/08/03 02:16:28;;;;;;;33.90;14.17;;;;;;;;;;3319246;42;20160;-58
2022/08/03 02:18:55;;;;;;;28.83;15.02;;;;;;;;;;3307127;42;20109;-58
2022/08/03 02:21:21;;;;;;;30.58;12.75;;;;;;;;;;3325474;42;20092;-58
2022/08/03 02:23:47;;;;;;;28.00;12.93;;;;;;;;;;3313523;42;20089;-57
2022/08/03 02:26:14;;;;;;;22.95;10.85;;;;;;;;;;3330878;42;20571;-58
2022/08/03 02:28:42;;;;;;;20.87;10.67;;;;;;;;;;3328072;42;20100;-57
2022/08/03 02:31:28;;;;;;;18.48;9.95;;;;;;;;;;3325286;42;20096;-59
2022/08/03 02:33:56;;;;;;;17.40;9.43;;;;;;;;;;3330647;42;20097;-58
2022/08/03 02:36:24;;;;;;;18.20;8.65;;;;;;;;;;3330978;42;20139;-61
2022/08/03 02:38:58;;;;;;;16.42;8.45;;;;;;;;;;3319191;42;20097;-58
2022/08/03 02:41:34;;;;;;;18.20;8.17;;;;;;;;;;3317887;42;20476;-58
2022/08/03 02:44:02;;;;;;;13.68;7.97;;;;;;;;;;3332003;42;20567;-56
2022/08/03 02:46:33;;;;;;;15.70;8.15;;;;;;;;;;3330964;42;20176;-55
2022/08/03 02:49:02;;;;;;;15.80;7.65;;;;;;;;;;3330695;42;20100;-58
2022/08/03 02:51:32;;;;;;;13.32;6.95;;;;;;;;;;3323606;42;20101;-56
2022/08/03 02:54:00;;;;;;;12.93;7.30;;;;;;;;;;3330538;42;20149;-55
2022/08/03 02:56:27;;;;;;;14.10;6.78;;;;;;;;;;3323673;42;20093;-57
2022/08/03 02:58:54;;;;;;;16.88;7.10;;;;;;;;;;3323641;42;20571;-58
2022/08/03 03:01:24;;;;;;;13.35;7.03;;;;;;;;;;3316674;42;20089;-58
2022/08/03 03:03:50;;;;;;;13.93;6.93;;;;;;;;;;3323626;42;20095;-58
2022/08/03 03:06:17;;;;;;;12.40;7.00;;;;;;;;;;3323585;42;20163;-57
2022/08/03 03:08:43;;;;;;;14.63;7.15;;;;;;;;;;3330716;42;20097;-56
2022/08/03 03:11:09;;;;;;;13.02;6.97;;;;;;;;;;3323757;42;20104;-58
2022/08/03 03:13:35;;;;;;;13.50;7.00;;;;;;;;;;3316270;42;20108;-58
2022/08/03 03:16:02;;;;;;;11.95;6.70;;;;;;;;;;3325206;42;20665;-57
2022/08/03 03:18:30;;;;;;;13.60;7.40;;;;;;;;;;3325240;42;20116;-57
2022/08/03 03:20:56;;;;;;;13.35;6.95;;;;;;;;;;3333393;42;20097;-58
2022/08/03 03:23:22;;;;;;;13.63;7.03;;;;;;;;;;3318535;42;20164;-59
2022/08/03 03:25:48;;;;;;;13.30;6.90;;;;;;;;;;3309452;42;20089;-58
2022/08/03 03:28:15;;;;;;;14.10;7.00;;;;;;;;;;3331601;42;20097;-58
2022/08/03 03:30:41;;;;;;;11.83;6.57;;;;;;;;;;3325217;42;20099;-58
2022/08/03 03:33:07;;;;;;;14.18;6.80;;;;;;;;;;3317469;42;20089;-59
2022/08/03 03:35:33;;;;;;;13.57;6.78;;;;;;;;;;3328799;42;20196;-59
2022/08/03 03:37:59;;;;;;;12.18;6.63;;;;;;;;;;3331820;42;20101;-58
2022/08/03 03:40:26;;;;;;;10.93;6.53;;;;;;;;;;3322771;42;20096;-58
2022/08/03 03:42:52;;;;;;;13.07;6.20;;;;;;;;;;3318723;42;20104;-59
2022/08/03 03:45:18;;;;;;;11.70;6.32;;;;;;;;;;3332646;42;20167;-59
2022/08/03 03:47:44;;;;;;;11.48;5.72;;;;;;;;;;3325353;42;20145;-58
2022/08/03 03:50:11;;;;;;;10.05;5.85;;;;;;;;;;3324877;42;20093;-60
2022/08/03 03:52:37;;;;;;;10.57;5.47;;;;;;;;;;3315981;42;20105;-58
2022/08/03 03:55:04;;;;;;;15.50;6.93;;;;;;;;;;3343764;42;20101;-58
2022/08/03 03:57:30;;;;;;;12.63;6.05;;;;;;;;;;3325173;42;20101;-59
2022/08/03 03:59:56;;;;;;;10.75;6.30;;;;;;;;;;3334015;42;20103;-58
2022/08/03 04:02:22;;;;;;;12.50;6.68;;;;;;;;;;3334104;42;20099;-57
2022/08/03 04:10:59;;;;;;;11.75;6.38;;;;;;;;;;3306561;43;20087;-57
2022/08/03 04:13:34;;;;;;;12.85;6.85;;;;;;;;;;3323723;42;20699;-61
2022/08/03 04:16:00;;;;;;;11.15;6.05;;;;;;;;;;3325707;42;20108;-57
2022/08/03 04:18:27;;;;;;;12.90;7.20;;;;;;;;;;3318060;42;20093;-57
2022/08/03 04:20:53;;;;;;;14.30;6.80;;;;;;;;;;3329280;42;20582;-58
2022/08/03 04:23:20;;;;;;;13.57;6.72;;;;;;;;;;3331202;42;20101;-57
2022/08/03 04:25:47;;;;;;;14.38;7.25;;;;;;;;;;3325649;42;20085;-57
2022/08/03 04:28:13;;;;;;;14.23;7.90;;;;;;;;;;3316566;42;20084;-57
2022/08/03 04:30:39;;;;;;;14.18;7.68;;;;;;;;;;3333426;42;20614;-57
2022/08/03 04:33:05;;;;;;;13.83;7.50;;;;;;;;;;3330708;42;20089;-59
2022/08/03 04:35:32;;;;;;;13.35;7.80;;;;;;;;;;3332168;42;20093;-57
2022/08/03 04:38:01;;;;;;;19.25;8.93;;;;;;;;;;3334002;42;20104;-58
2022/08/03 04:40:33;;;;;;;20.02;9.80;;;;;;;;;;3332225;42;20100;-58
2022/08/03 04:42:59;;;;;;;17.27;9.90;;;;;;;;;;3334631;42;20093;-58
2022/08/03 04:45:26;;;;;;;19.97;11.07;;;;;;;;;;3334594;42;20101;-58
2022/08/03 04:47:52;;;;;;;19.95;10.20;;;;;;;;;;3332339;42;20105;-57
2022/08/03 04:50:19;;;;;;;19.35;10.52;;;;;;;;;;3332843;42;20158;-58
2022/08/03 04:52:45;;;;;;;16.25;10.18;;;;;;;;;;3320111;42;20097;-58
2022/08/03 04:55:11;;;;;;;20.52;10.32;;;;;;;;;;3325124;42;20093;-58
2022/08/03 04:57:37;;;;;;;22.17;10.47;;;;;;;;;;3333919;42;20156;-58
2022/08/03 05:00:05;;;;;;;23.92;11.50;;;;;;;;;;3329243;42;20092;-58
2022/08/03 05:02:31;;;;;;;23.10;12.13;;;;;;;;;;3324287;42;20093;-58
2022/08/03 05:04:57;;;;;;;20.13;11.20;;;;;;;;;;3337410;42;20093;-59
2022/08/03 05:07:23;;;;;;;18.88;9.40;;;;;;;;;;3332409;42;20088;-58
2022/08/03 05:09:50;;;;;;;13.43;8.33;;;;;;;;;;3328984;42;20096;-58
2022/08/03 05:12:16;;;;;;;16.20;6.75;;;;;;;;;;3337014;42;20554;-59
2022/08/03 05:14:42;;;;;;;10.68;5.25;;;;;;;;;;3338812;42;20112;-57
2022/08/03 05:17:08;;;;;;;15.15;6.10;;;;;;;;;;3333833;42;20097;-58
2022/08/03 05:19:34;;;;;;;12.02;5.55;;;;;;;;;;3328385;42;20097;-59
2022/08/03 05:22:00;;;;;;;9.67;5.27;;;;;;;;;;3326193;42;20590;-59
2022/08/03 05:24:27;;;;;;;11.93;5.00;;;;;;;;;;3327194;42;20101;-59
2022/08/03 05:26:53;;;;;;;9.27;5.32;;;;;;;;;;3344522;42;20097;-58
2022/08/03 05:29:19;;;;;;;10.95;5.07;;;;;;;;;;3339761;42;20105;-60
2022/08/03 05:31:45;;;;;;;12.05;4.82;;;;;;;;;;3333987;42;20113;-58
2022/08/03 05:34:11;;;;;;;10.47;4.60;;;;;;;;;;3333728;42;20101;-58
2022/08/03 05:36:38;;;;;;;8.48;4.55;;;;;;;;;;3327342;42;20093;-58
2022/08/03 05:39:04;;;;;;;10.60;4.60;;;;;;;;;;3324376;42;20093;-57
2022/08/03 05:41:30;;;;;;;8.95;4.45;;;;;;;;;;3327017;42;20559;-59
2022/08/03 05:43:56;;;;;;;9.38;4.57;;;;;;;;;;3339736;42;20798;-57
2022/08/03 05:46:23;;;;;;;10.87;5.47;;;;;;;;;;3336537;42;20195;-58
2022/08/03 05:48:49;;;;;;;8.45;4.88;;;;;;;;;;3334484;42;20085;-59
2022/08/03 05:51:15;;;;;;;9.07;4.63;;;;;;;;;;3319526;42;20701;-59
2022/08/03 05:53:42;;;;;;;8.98;5.03;;;;;;;;;;3333691;42;20099;-59
2022/08/03 05:56:08;;;;;;;9.98;4.65;;;;;;;;;;3331302;42;20085;-59
2022/08/03 05:58:34;;;;;;;10.23;4.57;;;;;;;;;;3330706;42;20092;-57
2022/08/03 06:01:01;;;;;;;10.23;4.90;;;;;;;;;;3327334;42;20100;-58
2022/08/03 06:03:27;;;;;;;9.32;4.70;;;;;;;;;;3326555;42;20111;-57
2022/08/03 06:05:55;;;;;;;8.57;4.10;;;;;;;;;;3327539;42;20108;-57
2022/08/03 06:08:22;;;;;;;9.80;4.18;;;;;;;;;;3337524;42;20123;-57
2022/08/03 06:10:48;;;;;;;9.33;4.53;;;;;;;;;;3317540;42;20092;-59
2022/08/03 06:13:15;;;;;;;11.38;4.60;;;;;;;;;;3333635;42;20171;-59
2022/08/03 06:15:56;;;;;;;12.80;4.90;;;;;;;;;;3329168;42;20093;-57
2022/08/03 06:18:23;;;;;;;10.40;4.25;;;;;;;;;;3327632;42;20097;-58
2022/08/03 06:20:50;;;;;;;8.20;4.45;;;;;;;;;;3329006;42;20096;-57
2022/08/03 06:23:16;;;;;;;9.27;4.60;;;;;;;;;;3325656;42;20103;-58
2022/08/03 06:25:42;;;;;;;9.73;4.15;;;;;;;;;;3334155;42;20105;-58
2022/08/03 06:28:09;;;;;;;8.18;4.40;;;;;;;;;;3328202;42;20084;-59
2022/08/03 06:30:35;;;;;;;8.00;4.30;;;;;;;;;;3326489;42;20105;-57
2022/08/03 06:33:01;;;;;;;9.00;4.78;;;;;;;;;;3330382;42;20099;-58
2022/08/03 06:35:27;;;;;;;9.83;3.93;;;;;;;;;;3331328;42;20617;-57
2022/08/03 06:37:54;;;;;;;10.80;4.00;;;;;;;;;;3330638;42;20097;-58
2022/08/03 06:40:39;;;;;;;9.95;4.75;;;;;;;;;;3331455;42;20085;-58
2022/08/03 06:43:05;;;;;;;7.35;4.32;;;;;;;;;;3329094;42;20123;-58
2022/08/03 06:45:32;;;;;;;9.23;5.10;;;;;;;;;;3321410;42;20112;-58
2022/08/03 06:48:06;;;;;;;9.67;3.97;;;;;;;;;;3327130;42;20099;-57
2022/08/03 06:50:32;;;;;;;8.75;4.30;;;;;;;;;;3327668;42;20571;-59
2022/08/03 06:52:59;;;;;;;9.98;4.10;;;;;;;;;;3337232;42;20567;-59
2022/08/03 06:55:25;;;;;;;8.32;4.40;;;;;;;;;;3328387;42;20120;-58
2022/08/03 06:57:52;;;;;;;9.48;4.50;;;;;;;;;;3327566;42;20638;-54
2022/08/03 07:00:18;;;;;;;7.67;3.90;;;;;;;;;;3333367;42;20100;-57
2022/08/03 07:02:44;;;;;;;7.40;4.22;;;;;;;;;;3337691;42;20100;-59
2022/08/03 07:05:11;;;;;;;9.15;4.40;;;;;;;;;;3330048;42;20142;-58
2022/08/03 07:07:37;;;;;;;8.23;4.10;;;;;;;;;;3324959;42;20511;-56
2022/08/03 07:10:04;;;;;;;9.02;4.25;;;;;;;;;;3328727;42;20701;-57
2022/08/03 07:12:31;;;;;;;7.00;3.87;;;;;;;;;;3334065;42;20097;-56
2022/08/03 07:14:57;;;;;;;8.25;4.00;;;;;;;;;;3326218;42;20878;-59
2022/08/03 07:17:24;;;;;;;8.95;3.90;;;;;;;;;;3336011;42;20115;-57
2022/08/03 07:19:50;;;;;;;8.10;3.90;;;;;;;;;;3325375;42;20588;-59
2022/08/03 07:22:16;;;;;;;7.25;3.50;;;;;;;;;;3338411;42;20094;-58
2022/08/03 07:24:43;;;;;;;8.13;3.77;;;;;;;;;;3328969;42;20135;-57
2022/08/03 07:27:09;;;;;;;7.70;3.85;;;;;;;;;;3332760;42;20085;-58
2022/08/03 07:29:36;;;;;;;9.68;4.30;;;;;;;;;;3334054;42;20564;-59
2022/08/03 07:32:05;;;;;;;8.82;4.30;;;;;;;;;;3327645;42;20111;-58
2022/08/03 07:34:31;;;;;;;7.93;4.30;;;;;;;;;;3335627;42;20092;-60
2022/08/03 07:36:57;;;;;;;8.07;4.13;;;;;;;;;;3327405;42;20101;-58
2022/08/03 07:39:23;;;;;;;8.30;4.20;;;;;;;;;;3327070;42;20089;-56
2022/08/03 07:41:50;;;;;;;7.50;3.90;;;;;;;;;;3334659;42;20093;-54
2022/08/03 07:44:17;;;;;;;9.05;4.35;;;;;;;;;;3331089;42;20095;-56
2022/08/03 07:46:43;;;;;;;9.25;4.05;;;;;;;;;;3327093;42;20550;-57
2022/08/03 07:49:09;;;;;;;8.53;3.73;;;;;;;;;;3326843;42;20101;-54
2022/08/03 07:51:36;;;;;;;7.25;3.50;;;;;;;;;;3332654;42;20100;-55
2022/08/03 07:54:02;;;;;;;7.15;3.42;;;;;;;;;;3331736;42;20567;-55
2022/08/03 07:56:28;;;;;;;9.48;3.28;;;;;;;;;;3331702;42;20191;-54
2022/08/03 07:58:55;;;;;;;6.30;3.10;;;;;;;;;;3340934;42;20649;-55
2022/08/03 08:01:21;;;;;;;7.00;3.20;;;;;;;;;;3326889;42;20097;-56
2022/08/03 08:03:48;;;;;;;6.70;3.17;;;;;;;;;;3338798;42;20096;-56
2022/08/03 08:06:14;;;;;;;7.13;3.40;;;;;;;;;;3330533;42;20108;-58
2022/08/03 08:08:40;;;;;;;6.60;3.30;;;;;;;;;;3340258;42;20097;-54
2022/08/03 08:11:06;;;;;;;7.95;3.70;;;;;;;;;;3340402;42;20114;-53
2022/08/03 08:13:33;;;;;;;7.57;4.40;;;;;;;;;;3333682;42;20152;-55
2022/08/03 08:15:59;;;;;;;9.68;4.30;;;;;;;;;;3331268;42;20483;-55
2022/08/03 08:18:28;;;;;;;8.20;4.10;;;;;;;;;;3322848;42;20144;-55
2022/08/03 08:20:54;;;;;;;8.43;4.05;;;;;;;;;;3337547;42;20677;-54
2022/08/03 08:23:23;;;;;;;9.23;4.40;;;;;;;;;;3329717;42;20105;-55
2022/08/03 08:25:50;;;;;;;7.60;4.07;;;;;;;;;;3325708;42;20103;-54
2022/08/03 08:28:17;;;;;;;8.60;4.60;;;;;;;;;;3328554;42;20207;-55
2022/08/03 08:30:44;;;;;;;9.70;4.88;;;;;;;;;;3327676;42;20089;-56
2022/08/03 08:33:10;;;;;;;8.50;4.65;;;;;;;;;;3338198;42;20112;-56
2022/08/03 08:35:36;;;;;;;8.10;4.30;;;;;;;;;;3329617;42;20089;-53
2022/08/03 08:38:02;;;;;;;11.50;5.63;;;;;;;;;;3330554;42;20084;-55
2022/08/03 08:40:28;;;;;;;9.25;5.53;;;;;;;;;;3336424;42;20608;-54
2022/08/03 08:42:55;;;;;;;9.85;5.80;;;;;;;;;;3338637;42;20112;-53
2022/08/03 08:45:21;;;;;;;9.50;4.82;;;;;;;;;;3336825;42;20085;-58
2022/08/03 08:47:48;;;;;;;11.85;5.20;;;;;;;;;;3339764;42;20175;-56
2022/08/03 08:50:18;;;;;;;9.93;4.90;;;;;;;;;;3330356;42;20666;-55
2022/08/03 08:52:45;;;;;;;9.07;4.60;;;;;;;;;;3337796;42;20183;-55
2022/08/03 08:55:13;;;;;;;7.97;3.95;;;;;;;;;;3327599;42;20084;-55
2022/08/03 08:57:51;;;;;;;8.98;4.53;;;;;;;;;;3317667;42;20097;-56
2022/08/03 09:00:17;;;;;;;10.50;5.28;;;;;;;;;;3324784;42;20085;-56
2022/08/03 09:02:44;;;;;;;9.93;4.93;;;;;;;;;;3331677;42;20105;-55
2022/08/03 09:05:14;;;;;;;10.80;5.05;;;;;;;;;;3339288;42;20104;-57
2022/08/03 09:07:41;;;;;;;9.13;5.18;;;;;;;;;;3326942;42;20092;-53
2022/08/03 09:10:08;;;;;;;9.63;4.93;;;;;;;;;;3325069;42;20527;-55
2022/08/03 09:12:39;;;;;;;10.02;4.90;;;;;;;;;;3323364;42;20093;-54
2022/08/03 09:15:21;;;;;;;8.60;4.30;;;;;;;;;;3329311;42;20093;-57
2022/08/03 09:17:48;;;;;;;7.60;4.18;;;;;;;;;;3332667;42;20535;-55
2022/08/03 09:20:14;;;;;;;10.15;4.50;;;;;;;;;;3324292;42;20093;-55
2022/08/03 09:23:00;;;;;;;7.50;4.40;;;;;;;;;;3327650;42;20607;-56
2022/08/03 09:25:34;;;;;;;10.10;4.78;;;;;;;;;;3327590;42;20129;-56
2022/08/03 09:28:10;;;;;;;9.03;4.40;;;;;;;;;;3341986;42;20603;-52
2022/08/03 09:30:41;;;;;;;9.88;4.63;;;;;;;;;;3337701;42;20187;-53
2022/08/03 09:33:09;;;;;;;8.00;3.70;;;;;;;;;;3332153;42;20578;-55
2022/08/03 09:35:42;;;;;;;7.88;4.07;;;;;;;;;;3331785;42;20108;-53
2022/08/03 09:38:13;;;;;;;9.45;3.85;;;;;;;;;;3324022;42;20575;-55
2022/08/03 09:40:39;;;;;;;8.30;3.93;;;;;;;;;;3342896;42;20151;-55
2022/08/03 09:43:08;;;;;;;8.40;4.57;;;;;;;;;;3328791;42;20096;-56
2022/08/03 09:45:35;;;;;;;8.45;3.90;;;;;;;;;;3324519;42;20097;-54
2022/08/03 09:48:28;;;;;;;7.40;3.55;;;;;;;;;;3328156;42;20123;-57
2022/08/03 09:50:56;;;;;;;8.10;4.05;;;;;;;;;;3327224;42;20168;-57
2022/08/03 09:53:22;;;;;;;8.70;3.83;;;;;;;;;;3343712;42;20148;-56
2022/08/03 09:55:51;;;;;;;8.35;4.10;;;;;;;;;;3328076;42;20092;-55
2022/08/03 09:58:20;;;;;;;7.78;3.90;;;;;;;;;;3332354;42;20160;-56
2022/08/03 10:00:57;;;;;;;7.80;3.80;;;;;;;;;;3328945;42;20101;-54
2022/08/03 10:03:25;;;;;;;8.65;4.10;;;;;;;;;;3323197;42;20100;-56
2022/08/03 10:05:51;;;;;;;8.57;4.07;;;;;;;;;;3328796;42;20149;-52
2022/08/03 10:08:18;;;;;;;9.07;4.30;;;;;;;;;;3322926;42;20139;-55
2022/08/03 10:10:45;;;;;;;9.93;4.50;;;;;;;;;;3327959;42;20085;-52
2022/08/03 10:13:17;;;;;;;9.13;3.97;;;;;;;;;;3332822;42;20085;-56
2022/08/03 10:15:43;;;;;;;8.07;3.88;;;;;;;;;;3337371;42;20096;-55
2022/08/03 10:18:09;;;;;;;8.03;3.97;;;;;;;;;;3336282;42;20555;-53
2022/08/03 10:20:37;;;;;;;8.77;4.10;;;;;;;;;;3330546;42;20229;-52
2022/08/03 10:23:03;;;;;;;7.55;4.18;;;;;;;;;;3332387;42;20088;-54
2022/08/03 10:25:29;;;;;;;7.68;3.95;;;;;;;;;;3328889;42;20140;-52
2022/08/03 10:27:56;;;;;;;9.93;3.72;;;;;;;;;;3324513;42;20195;-52
2022/08/03 10:30:22;;;;;;;9.73;3.90;;;;;;;;;;3327268;42;20085;-58
2022/08/03 10:32:54;;;;;;;7.63;3.55;;;;;;;;;;3336902;42;20183;-52
2022/08/03 10:35:20;;;;;;;9.00;4.10;;;;;;;;;;3326296;42;20526;-52
2022/08/03 10:37:51;;;;;;;7.80;3.63;;;;;;;;;;3329933;42;20107;-54
2022/08/03 10:40:20;;;;;;;8.70;4.05;;;;;;;;;;3334222;42;20103;-54
2022/08/03 10:42:46;;;;;;;8.80;3.70;;;;;;;;;;3328018;42;20167;-54
2022/08/03 10:45:18;;;;;;;8.13;4.00;;;;;;;;;;3316425;42;20567;-53
2022/08/03 10:47:46;;;;;;;7.38;3.83;;;;;;;;;;3327183;42;20219;-57
2022/08/03 10:50:12;;;;;;;9.63;3.72;;;;;;;;;;3330226;42;20574;-50
2022/08/03 10:52:57;;;;;;;9.30;3.83;;;;;;;;;;3317507;42;20105;-51
2022/08/03 10:58:36;;;;;;;8.70;3.88;;;;;;;;;;3332364;42;20245;-54
2022/08/03 11:01:07;;;;;;;7.45;3.90;;;;;;;;;;3329457;42;20094;-53
2022/08/03 11:03:54;;;;;;;7.78;3.72;;;;;;;;;;3329792;42;20615;-52
2022/08/03 11:06:24;;;;;;;7.65;3.80;;;;;;;;;;3333601;42;20088;-54
2022/08/03 11:09:11;;;;;;;9.13;3.97;;;;;;;;;;3331299;42;20148;-48
2022/08/03 11:11:38;;;;;;;8.18;3.75;;;;;;;;;;3330837;42;20213;-54
2022/08/03 11:14:06;;;;;;;9.77;3.83;;;;;;;;;;3327163;42;20142;-55
2022/08/03 11:16:51;;;;;;;7.63;3.90;;;;;;;;;;3330135;42;20176;-55
2022/08/03 11:19:21;;;;;;;9.77;3.60;;;;;;;;;;3323470;42;20144;-54
2022/08/03 11:21:47;;;;;;;8.63;4.00;;;;;;;;;;3327101;42;20108;-55
2022/08/03 11:24:35;;;;;;;9.20;3.97;;;;;;;;;;3331686;42;20216;-51
2022/08/03 11:27:14;;;;;;;7.90;3.72;;;;;;;;;;3330851;42;20100;-52
2022/08/03 11:30:02;;;;;;;8.45;3.92;;;;;;;;;;3328288;42;20569;-56
2022/08/03 11:32:37;;;;;;;10.98;3.85;;;;;;;;;;3323428;42;20099;-55
2022/08/03 11:35:07;;;;;;;8.73;3.70;;;;;;;;;;3330039;42;20100;-53
2022/08/03 11:37:33;;;;;;;8.55;3.80;;;;;;;;;;3332335;42;20097;-50
2022/08/03 11:39:59;;;;;;;8.80;3.80;;;;;;;;;;3319083;42;20099;-56
2022/08/03 11:42:27;;;;;;;7.40;3.70;;;;;;;;;;3330212;42;20097;-54
2022/08/03 11:44:58;;;;;;;9.40;3.70;;;;;;;;;;3335627;42;20105;-55
2022/08/03 11:47:28;;;;;;;8.73;3.70;;;;;;;;;;3336627;42;20571;-54
2022/08/03 11:49:59;;;;;;;7.90;3.65;;;;;;;;;;3339047;42;20147;-56
2022/08/03 11:52:25;;;;;;;8.80;3.85;;;;;;;;;;3327658;42;20113;-54
2022/08/03 11:54:52;;;;;;;7.38;3.75;;;;;;;;;;3326077;42;20084;-53
2022/08/03 11:57:31;;;;;;;9.20;3.50;;;;;;;;;;3328438;42;20097;-54
2022/08/03 11:59:58;;;;;;;8.80;3.50;;;;;;;;;;3330214;42;20081;-51
2022/08/03 12:02:24;;;;;;;7.20;3.15;;;;;;;;;;3334669;42;20105;-55
2022/08/03 12:04:51;;;;;;;7.05;3.20;;;;;;;;;;3341944;42;20514;-54
2022/08/03 12:07:18;;;;;;;9.52;3.63;;;;;;;;;;3333719;42;20096;-53
2022/08/03 12:10:07;;;;;;;7.70;3.55;;;;;;;;;;3327084;42;20103;-55
2022/08/03 12:12:33;;;;;;;14.33;4.43;;;;;;;;;;3330741;42;20088;-56
2022/08/03 12:14:59;;;;;;;9.85;4.10;;;;;;;;;;3312208;42;20106;-56
2022/08/03 12:17:44;;;;;;;8.82;3.83;;;;;;;;;;3325902;42;20096;-54
2022/08/03 12:20:13;;;;;;;10.57;4.57;;;;;;;;;;3335934;42;20089;-53
2022/08/03 12:22:40;;;;;;;8.43;3.75;;;;;;;;;;3317467;42;20510;-55
2022/08/03 12:25:07;;;;;;;7.93;3.77;;;;;;;;;;3325010;42;20172;-56
2022/08/03 12:27:33;;;;;;;9.18;3.80;;;;;;;;;;3322600;42;20203;-57
2022/08/03 12:30:00;;;;;;;12.82;4.40;;;;;;;;;;3327501;42;20560;-57
2022/08/03 12:32:27;;;;;;;10.55;4.05;;;;;;;;;;3324328;42;20104;-53
2022/08/03 12:34:54;;;;;;;11.05;4.32;;;;;;;;;;3332292;42;20098;-53
2022/08/03 12:37:21;;;;;;;8.73;3.67;;;;;;;;;;3331649;42;20115;-50
2022/08/03 12:40:00;;;;;;;8.68;4.05;;;;;;;;;;3345365;42;20085;-51
2022/08/03 12:42:30;;;;;;;7.75;3.88;;;;;;;;;;3325420;42;20089;-53
2022/08/03 12:44:56;;;;;;;9.45;4.03;;;;;;;;;;3329215;42;20531;-54
2022/08/03 12:47:23;;;;;;;11.57;4.90;;;;;;;;;;3326716;42;20116;-53
2022/08/03 12:49:50;;;;;;;7.33;3.70;;;;;;;;;;3333020;42;20104;-53
2022/08/03 12:52:17;;;;;;;8.52;3.97;;;;;;;;;;3329379;42;20088;-50
2022/08/03 12:54:56;;;;;;;8.13;3.80;;;;;;;;;;3330867;42;20144;-54
2022/08/03 12:57:23;;;;;;;8.52;4.22;;;;;;;;;;3329086;42;20085;-54
2022/08/03 12:59:49;;;;;;;9.15;4.53;;;;;;;;;;3325453;42;20115;-54
2022/08/03 13:02:23;;;;;;;9.83;4.60;;;;;;;;;;3330572;42;20167;-55
2022/08/03 13:04:50;;;;;;;9.52;4.70;;;;;;;;;;3336693;42;20100;-54
2022/08/03 13:07:17;;;;;;;9.23;4.78;;;;;;;;;;3327334;42;20210;-54
2022/08/03 13:09:46;;;;;;;10.55;4.55;;;;;;;;;;3332400;42;20164;-51
2022/08/03 13:12:14;;;;;;;8.25;4.40;;;;;;;;;;3328079;42;20093;-50
2022/08/03 13:14:41;;;;;;;9.63;5.03;;;;;;;;;;3328865;42;20089;-54
2022/08/03 13:17:08;;;;;;;10.65;4.90;;;;;;;;;;3327610;42;20132;-53
2022/08/03 13:19:37;;;;;;;10.05;4.50;;;;;;;;;;3325364;42;20133;-51
2022/08/03 13:22:23;;;;;;;8.60;4.45;;;;;;;;;;3341832;42;20551;-53
2022/08/03 13:24:57;;;;;;;10.18;4.70;;;;;;;;;;3325731;42;20171;-54
2022/08/03 13:27:23;;;;;;;9.20;4.80;;;;;;;;;;3328251;42;20122;-54
2022/08/03 13:29:49;;;;;;;9.25;4.47;;;;;;;;;;3335903;42;20120;-54
2022/08/03 13:32:16;;;;;;;10.20;4.90;;;;;;;;;;3335534;42;20100;-53
2022/08/03 13:34:42;;;;;;;11.63;4.60;;;;;;;;;;3329545;42;20567;-55
2022/08/03 13:37:09;;;;;;;9.90;4.70;;;;;;;;;;3321357;42;20101;-54
2022/08/03 13:39:35;;;;;;;11.77;4.73;;;;;;;;;;3328223;42;20571;-53
2022/08/03 13:42:01;;;;;;;11.85;4.55;;;;;;;;;;3337057;42;20097;-52
2022/08/03 13:44:27;;;;;;;11.10;4.40;;;;;;;;;;3331759;42;20101;-54
2022/08/03 13:46:53;;;;;;;8.65;4.10;;;;;;;;;;3330796;42;20489;-57
2022/08/03 13:49:20;;;;;;;7.85;4.20;;;;;;;;;;3332559;42;20172;-54
2022/08/03 13:51:46;;;;;;;9.17;4.50;;;;;;;;;;3329457;42;20100;-55
2022/08/03 13:54:12;;;;;;;11.35;4.80;;;;;;;;;;3330033;42;20096;-54
2022/08/03 13:56:38;;;;;;;9.80;4.78;;;;;;;;;;3325207;42;20085;-55
2022/08/03 13:59:05;;;;;;;9.60;4.70;;;;;;;;;;3334011;42;20522;-54
2022/08/03 14:01:31;;;;;;;9.55;4.75;;;;;;;;;;3330401;42;20095;-54
2022/08/03 14:03:57;;;;;;;11.23;4.43;;;;;;;;;;3326148;42;20188;-52
2022/08/03 14:06:23;;;;;;;9.00;4.55;;;;;;;;;;3337578;42;20092;-53
2022/08/03 14:08:50;;;;;;;12.55;4.90;;;;;;;;;;3336831;42;20093;-50
2022/08/03 14:11:16;;;;;;;9.60;4.40;;;;;;;;;;3331539;42;20123;-51
2022/08/03 14:13:43;;;;;;;9.75;4.65;;;;;;;;;;3331059;42;20101;-52
2022/08/03 14:16:10;;;;;;;9.73;4.70;;;;;;;;;;3334618;42;20100;-53
2022/08/03 14:18:36;;;;;;;10.13;4.50;;;;;;;;;;3332319;42;20104;-52
2022/08/03 14:21:03;;;;;;;8.63;4.78;;;;;;;;;;3328053;42;20148;-62
2022/08/03 14:23:29;;;;;;;8.50;4.35;;;;;;;;;;3336314;42;20571;-52
2022/08/03 14:25:55;;;;;;;10.27;5.22;;;;;;;;;;3327571;42;20827;-52
2022/08/03 14:28:22;;;;;;;9.83;4.30;;;;;;;;;;3327467;42;20108;-54
2022/08/03 14:30:51;;;;;;;9.30;4.88;;;;;;;;;;3328083;42;20085;-54
2022/08/03 14:33:18;;;;;;;13.05;7.10;;;;;;;;;;3334338;42;20093;-53
2022/08/03 14:35:44;;;;;;;11.85;4.80;;;;;;;;;;3338818;42;20543;-54
2022/08/03 14:38:10;;;;;;;11.77;4.70;;;;;;;;;;3327728;42;20093;-53
2022/08/03 14:40:36;;;;;;;12.70;5.57;;;;;;;;;;3343152;42;20101;-55
2022/08/03 14:43:02;;;;;;;10.80;4.55;;;;;;;;;;3338943;42;20097;-53
2022/08/03 14:45:29;;;;;;;12.20;5.50;;;;;;;;;;3335511;42;20085;-51
2022/08/03 14:47:55;;;;;;;11.38;5.13;;;;;;;;;;3327849;42;20085;-52
2022/08/03 14:50:21;;;;;;;9.70;4.93;;;;;;;;;;3335135;42;20085;-54